createdAt,value
2022-08-10T00:02:53.874Z,0
2022-08-10T00:07:53.869Z,0
2022-08-10T00:12:57.139Z,0
2022-08-10T00:22:59.587Z,0
2022-08-10T00:28:02.399Z,0
2022-08-10T00:38:14.323Z,0
2022-08-10T00:42:55.194Z,0
2022-08-10T00:47:54.082Z,0
2022-08-10T00:52:53.947Z,0
2022-08-10T00:57:56.997Z,0
2022-08-10T01:02:53.944Z,0
2022-08-10T01:07:53.932Z,0
2022-08-10T01:12:56.196Z,0
2022-08-10T01:17:57.885Z,0
2022-08-10T01:27:53.955Z,0
2022-08-10T01:32:53.978Z,0
2022-08-10T01:37:53.954Z,0
2022-08-10T01:42:53.955Z,0
2022-08-10T01:47:53.947Z,0
2022-08-10T01:53:00.268Z,0
2022-08-10T01:57:53.948Z,0
2022-08-10T02:02:53.929Z,0
2022-08-10T02:07:53.953Z,0
2022-08-10T02:12:53.924Z,0
2022-08-10T02:18:01.029Z,0
2022-08-10T02:22:53.922Z,0
2022-08-10T02:27:53.965Z,0
2022-08-10T02:32:53.998Z,0
2022-08-10T02:37:57.961Z,0
2022-08-10T02:45:17.270Z,0
2022-08-10T02:47:53.924Z,0
2022-08-10T02:52:53.923Z,0
2022-08-10T02:58:12.800Z,0
2022-08-10T03:02:53.974Z,0
2022-08-10T03:07:54.975Z,0
2022-08-10T03:12:54.324Z,0
2022-08-10T03:17:58.714Z,0
2022-08-10T03:22:55.353Z,0
2022-08-10T03:27:53.955Z,0
2022-08-10T03:32:54.101Z,0
2022-08-10T03:42:53.990Z,0
2022-08-10T03:47:54.287Z,0
2022-08-10T03:52:54.005Z,0
2022-08-10T03:57:54.005Z,0
2022-08-10T04:02:54.457Z,0
2022-08-10T04:07:53.961Z,0
2022-08-10T04:12:58.918Z,0
2022-08-10T04:18:03.504Z,0
2022-08-10T04:22:53.970Z,265
2022-08-10T04:27:53.988Z,265
2022-08-10T04:32:53.958Z,266
2022-08-10T04:37:54.040Z,266
2022-08-10T04:43:00.236Z,267
2022-08-10T04:47:58.079Z,268
2022-08-10T04:52:54.038Z,271
2022-08-10T04:57:57.985Z,270
2022-08-10T05:02:53.997Z,271
2022-08-10T05:07:57.144Z,273
2022-08-10T05:12:54.008Z,274
2022-08-10T05:22:53.964Z,275
2022-08-10T05:27:57.673Z,276
2022-08-10T05:33:00.896Z,277
2022-08-10T05:38:11.159Z,278
2022-08-10T05:42:54.022Z,279
2022-08-10T05:48:41.462Z,280
2022-08-10T05:52:54.008Z,282
2022-08-10T05:57:53.989Z,282
2022-08-10T06:02:55.779Z,282
2022-08-10T06:07:57.034Z,283
2022-08-10T06:12:57.057Z,283
2022-08-10T06:17:58.986Z,284
2022-08-10T06:22:54.038Z,284
2022-08-10T06:27:54.006Z,284
2022-08-10T06:32:54.087Z,285
2022-08-10T06:37:54.069Z,286
2022-08-10T06:42:53.988Z,286
2022-08-10T06:47:54.003Z,288
2022-08-10T06:52:54.057Z,288
2022-08-10T06:57:59.570Z,290
2022-08-10T07:02:54.049Z,290
2022-08-10T07:07:54.036Z,291
2022-08-10T07:12:53.994Z,294
2022-08-10T07:17:54.043Z,295
2022-08-10T07:23:00.873Z,292
2022-08-10T07:27:59.370Z,295
2022-08-10T07:32:54.024Z,296
2022-08-10T07:37:54.023Z,299
2022-08-10T07:42:54.092Z,299
2022-08-10T07:47:57.095Z,298
2022-08-10T07:52:54.102Z,301
2022-08-10T07:57:54.053Z,303
2022-08-10T08:02:54.094Z,305
2022-08-10T08:07:54.041Z,307
2022-08-10T08:12:54.022Z,311
2022-08-10T08:17:59.892Z,314
2022-08-10T08:24:03.233Z,316
2022-08-10T08:27:54.062Z,319
2022-08-10T08:38:29.337Z,325
2022-08-10T08:42:54.045Z,330
2022-08-10T08:48:03.449Z,338
2022-08-10T08:52:55.362Z,356
2022-08-10T08:57:56.591Z,377
2022-08-10T09:02:57.293Z,661
2022-08-10T09:08:01.384Z,1809
2022-08-10T09:12:54.043Z,1841
2022-08-10T09:17:54.119Z,1632
2022-08-10T09:27:55.043Z,1779
2022-08-10T09:35:39.304Z,1905
2022-08-10T09:38:01.594Z,1969
2022-08-10T09:43:14.453Z,1959
2022-08-10T09:48:00.901Z,1756
2022-08-10T09:52:58.595Z,443
2022-08-10T09:57:57.228Z,1782
2022-08-10T10:02:54.109Z,1487
2022-08-10T10:07:54.121Z,447
2022-08-10T10:12:54.078Z,450
2022-08-10T10:17:54.059Z,352
2022-08-10T10:22:54.121Z,337
2022-08-10T10:27:54.077Z,399
2022-08-10T10:32:58.226Z,1723
2022-08-10T10:38:02.350Z,512
2022-08-10T10:42:54.094Z,350
2022-08-10T10:47:54.116Z,355
2022-08-10T10:52:54.098Z,357
2022-08-10T10:57:58.230Z,336
2022-08-10T11:02:54.129Z,387
2022-08-10T11:07:57.206Z,1496
2022-08-10T11:12:55.078Z,351
2022-08-10T11:22:56.798Z,429
2022-08-10T11:27:54.134Z,391
2022-08-10T11:32:54.124Z,382
2022-08-10T11:38:34.840Z,363
2022-08-10T11:42:54.147Z,337
2022-08-10T11:47:54.161Z,333
2022-08-10T11:52:54.136Z,334
2022-08-10T11:57:57.152Z,331
2022-08-10T12:02:54.184Z,356
2022-08-10T12:08:55.054Z,328
2022-08-10T12:12:54.131Z,335
2022-08-10T12:17:54.157Z,334
2022-08-10T12:22:54.130Z,332
2022-08-10T12:27:54.151Z,337
2022-08-10T12:32:54.434Z,337
2022-08-10T12:37:54.144Z,314
2022-08-10T12:42:59.165Z,315
2022-08-10T12:47:54.207Z,325
2022-08-10T12:52:54.172Z,322
2022-08-10T12:57:54.119Z,319
2022-08-10T13:02:55.182Z,309
2022-08-10T13:08:04.153Z,313
2022-08-10T13:12:54.208Z,302
2022-08-10T13:17:54.294Z,304
2022-08-10T13:22:54.193Z,317
2022-08-10T13:28:00.169Z,345
2022-08-10T13:32:54.229Z,323
2022-08-10T13:37:54.736Z,297
2022-08-10T13:42:54.196Z,325
2022-08-10T13:47:54.263Z,316
2022-08-10T13:52:54.182Z,309
2022-08-10T13:57:57.220Z,294
2022-08-10T14:08:00.667Z,317
2022-08-10T14:12:54.190Z,305
2022-08-10T14:17:54.312Z,304
2022-08-10T14:22:54.247Z,295
2022-08-10T14:28:02.786Z,303
2022-08-10T14:32:54.363Z,298
2022-08-10T14:37:54.196Z,303
2022-08-10T14:42:54.277Z,299
2022-08-10T14:47:59.769Z,313
2022-08-10T15:42:54.252Z,303
2022-08-10T15:48:02.382Z,310
2022-08-10T15:53:01.452Z,307
2022-08-10T15:57:54.267Z,301
2022-08-10T16:02:54.234Z,298
2022-08-10T16:07:57.450Z,282
2022-08-10T16:12:59.351Z,278
2022-08-10T16:17:56.198Z,275
2022-08-10T16:22:54.188Z,275
2022-08-10T16:27:54.197Z,287
2022-08-10T16:32:54.256Z,285
2022-08-10T16:37:59.634Z,285
2022-08-10T16:42:54.315Z,283
2022-08-10T16:47:54.305Z,284
2022-08-10T16:52:54.218Z,283
2022-08-10T16:57:54.329Z,279
2022-08-10T17:02:54.221Z,280
2022-08-10T17:07:54.379Z,278
2022-08-10T17:12:54.279Z,274
2022-08-10T17:17:54.287Z,274
2022-08-10T17:22:55.254Z,274
2022-08-10T17:28:03.746Z,271
2022-08-10T17:32:54.275Z,271
2022-08-10T17:37:54.250Z,270
2022-08-10T17:42:54.320Z,271
2022-08-10T17:47:54.285Z,269
2022-08-10T17:52:54.294Z,268
2022-08-10T17:58:00.688Z,267
2022-08-10T18:02:54.331Z,267
2022-08-10T18:07:54.369Z,266
2022-08-10T18:12:54.268Z,265
2022-08-10T18:17:59.392Z,0
2022-08-10T18:22:54.262Z,0
2022-08-10T18:28:01.886Z,0
2022-08-10T18:32:54.326Z,0
2022-08-10T18:37:54.435Z,0
2022-08-10T18:42:54.326Z,0
2022-08-10T18:47:59.161Z,0
2022-08-10T18:52:54.366Z,0
2022-08-10T18:57:58.637Z,0
2022-08-10T19:02:54.338Z,0
2022-08-10T19:07:54.328Z,0
2022-08-10T19:12:54.313Z,0
2022-08-10T19:17:59.176Z,0
2022-08-10T19:22:54.319Z,0
2022-08-10T19:27:59.406Z,0
2022-08-10T19:32:55.375Z,0
2022-08-10T19:38:00.255Z,0
2022-08-10T19:42:54.356Z,0
2022-08-10T19:47:54.335Z,0
2022-08-10T19:52:58.287Z,0
2022-08-10T19:57:54.338Z,0
2022-08-10T20:02:54.336Z,0
2022-08-10T20:07:54.351Z,0
2022-08-10T20:12:57.476Z,0
2022-08-10T20:17:57.398Z,0
2022-08-10T20:22:54.326Z,0
2022-08-10T20:27:59.403Z,0
2022-08-10T20:32:54.351Z,0
2022-08-10T20:38:03.223Z,0
2022-08-10T20:42:54.344Z,0
2022-08-10T20:47:55.368Z,0
2022-08-10T20:52:54.311Z,0
2022-08-10T20:57:57.688Z,0
2022-08-10T21:02:54.395Z,0
2022-08-10T21:08:01.497Z,0
2022-08-10T21:12:54.325Z,0
2022-08-10T21:17:54.354Z,0
2022-08-10T21:22:54.353Z,0
2022-08-10T21:27:57.672Z,0
2022-08-10T21:32:54.636Z,0
2022-08-10T21:37:59.466Z,0
2022-08-10T21:42:59.062Z,0
2022-08-10T21:48:06.721Z,0
2022-08-10T21:53:00.780Z,0
2022-08-10T21:57:54.383Z,0
2022-08-10T22:02:54.333Z,0
2022-08-10T22:07:54.785Z,0
2022-08-10T22:12:54.386Z,0
2022-08-10T22:18:00.622Z,0
2022-08-10T22:22:57.396Z,0
2022-08-10T22:27:54.464Z,0
2022-08-10T22:32:54.353Z,0
2022-08-10T22:37:54.371Z,0
2022-08-10T22:42:58.603Z,0
2022-08-10T22:47:54.382Z,0
2022-08-10T22:53:01.794Z,0
2022-08-10T22:57:54.410Z,0
2022-08-10T23:02:54.463Z,0
2022-08-10T23:07:54.392Z,0
2022-08-10T23:12:54.378Z,0
2022-08-10T23:18:01.358Z,0
2022-08-10T23:22:54.376Z,0
2022-08-10T23:27:57.463Z,0
2022-08-10T23:32:54.379Z,0
2022-08-10T23:42:54.394Z,0
2022-08-10T23:47:54.425Z,0
2022-08-10T23:52:54.388Z,0
2022-08-10T23:57:54.401Z,0
